createdAt,value
2023-05-21T00:01:35.996Z,15.38
2023-05-21T00:04:03.539Z,15.37
2023-05-21T00:06:30.619Z,15.33
2023-05-21T00:08:57.181Z,15.35
2023-05-21T00:11:24.105Z,15.28
2023-05-21T00:13:50.648Z,15.24
2023-05-21T00:16:17.270Z,15.07
2023-05-21T00:18:44.899Z,15.02
2023-05-21T00:21:12.260Z,15.01
2023-05-21T00:23:39.749Z,14.82
2023-05-21T00:26:06.460Z,14.75
2023-05-21T00:28:33.021Z,14.96
2023-05-21T00:30:59.500Z,14.97
2023-05-21T00:33:29.355Z,14.93
2023-05-21T00:35:56.815Z,14.96
2023-05-21T00:38:23.561Z,15.06
2023-05-21T00:40:50.480Z,14.98
2023-05-21T00:43:16.972Z,15.11
2023-05-21T00:45:44.551Z,15.10
2023-05-21T00:48:11.536Z,15.13
2023-05-21T00:50:39.801Z,15.07
2023-05-21T00:53:09.700Z,15.23
2023-05-21T00:55:39.853Z,15.38
2023-05-21T00:58:06.650Z,15.29
2023-05-21T01:00:33.824Z,15.30
2023-05-21T01:03:01.068Z,15.27
2023-05-21T01:05:28.964Z,15.28
2023-05-21T01:07:56.811Z,15.33
2023-05-21T01:10:23.495Z,15.27
2023-05-21T01:12:51.184Z,15.23
2023-05-21T01:15:17.676Z,15.21
2023-05-21T01:17:46.080Z,15.19
2023-05-21T01:20:13.080Z,15.20
2023-05-21T01:22:43.943Z,15.19
2023-05-21T01:25:10.944Z,15.20
2023-05-21T01:27:37.451Z,15.18
2023-05-21T01:30:04.815Z,15.24
2023-05-21T01:32:40.451Z,15.12
2023-05-21T01:35:07.077Z,15.00
2023-05-21T01:37:33.582Z,14.99
2023-05-21T01:40:03.858Z,15.14
2023-05-21T01:42:31.512Z,15.22
2023-05-21T01:44:59.581Z,15.24
2023-05-21T01:47:26.950Z,15.30
2023-05-21T01:49:53.547Z,15.40
2023-05-21T01:52:20.172Z,15.44
2023-05-21T01:54:47.036Z,15.40
2023-05-21T01:57:13.581Z,15.34
2023-05-21T01:59:40.060Z,15.32
2023-05-21T02:02:06.641Z,15.38
2023-05-21T02:04:33.179Z,15.44
2023-05-21T02:06:59.682Z,15.53
2023-05-21T02:09:26.234Z,15.12
2023-05-21T02:11:52.785Z,15.16
2023-05-21T02:14:20.495Z,15.31
2023-05-21T02:16:47.177Z,15.23
2023-05-21T02:19:13.753Z,15.21
2023-05-21T02:21:40.549Z,15.33
2023-05-21T02:24:07.216Z,15.25
2023-05-21T02:26:33.769Z,15.22
2023-05-21T02:29:00.641Z,15.10
2023-05-21T02:31:27.200Z,14.99
2023-05-21T02:33:53.739Z,15.00
2023-05-21T02:36:20.337Z,15.00
2023-05-21T02:38:47.671Z,14.89
2023-05-21T02:41:14.525Z,14.58
2023-05-21T02:43:41.140Z,14.49
2023-05-21T02:46:07.880Z,14.57
2023-05-21T02:48:35.486Z,14.49
2023-05-21T02:51:03.946Z,14.52
2023-05-21T02:53:31.127Z,14.63
2023-05-21T02:55:57.677Z,14.50
2023-05-21T02:58:25.241Z,14.57
2023-05-21T03:00:52.683Z,14.48
2023-05-21T03:03:19.445Z,14.50
2023-05-21T03:05:46.204Z,14.50
2023-05-21T03:08:12.742Z,14.55
2023-05-21T03:10:39.756Z,14.34
2023-05-21T03:13:09.508Z,14.39
2023-05-21T03:15:38.904Z,14.32
2023-05-21T03:18:05.845Z,14.33
2023-05-21T03:20:33.352Z,14.37
2023-05-21T03:23:04.320Z,14.26
2023-05-21T03:25:31.237Z,14.24
2023-05-21T03:27:57.794Z,14.26
2023-05-21T03:30:49.637Z,14.13
2023-05-21T03:33:42.481Z,14.26
2023-05-21T03:36:22.613Z,14.16
2023-05-21T03:38:49.310Z,14.23
2023-05-21T03:41:15.913Z,14.28
2023-05-21T03:43:46.175Z,14.14
2023-05-21T03:46:12.714Z,14.16
2023-05-21T03:48:45.844Z,14.02
2023-05-21T03:51:16.047Z,14.09
2023-05-21T03:53:42.596Z,14.05
2023-05-21T03:56:09.135Z,14.18
2023-05-21T03:58:35.691Z,14.28
2023-05-21T04:01:02.875Z,14.21
2023-05-21T04:03:33.184Z,14.14
2023-05-21T04:05:59.915Z,14.30
2023-05-21T04:08:26.892Z,14.38
2023-05-21T04:10:53.417Z,14.41
2023-05-21T04:13:20.636Z,14.51
2023-05-21T04:15:48.685Z,14.66
2023-05-21T04:18:20.556Z,14.85
2023-05-21T04:20:47.048Z,14.88
2023-05-21T04:23:13.590Z,15.01
2023-05-21T04:25:40.474Z,15.19
2023-05-21T04:28:07.303Z,15.22
2023-05-21T04:30:35.657Z,15.23
2023-05-21T04:33:03.697Z,15.34
2023-05-21T04:35:31.321Z,15.39
2023-05-21T04:37:58.032Z,15.50
2023-05-21T04:40:24.685Z,15.66
2023-05-21T04:42:51.473Z,15.59
2023-05-21T04:45:21.249Z,15.76
2023-05-21T04:47:48.603Z,15.93
2023-05-21T04:50:15.400Z,16.14
2023-05-21T04:52:42.253Z,16.50
2023-05-21T04:55:08.949Z,16.51
2023-05-21T04:57:35.819Z,16.63
2023-05-21T05:00:03.543Z,16.69
2023-05-21T05:02:36.134Z,17.01
2023-05-21T05:05:02.904Z,17.16
2023-05-21T05:07:29.523Z,17.13
2023-05-21T05:09:56.126Z,17.35
2023-05-21T05:12:23.075Z,17.78
2023-05-21T05:14:49.569Z,18.00
2023-05-21T05:17:16.429Z,18.50
2023-05-21T05:19:43.484Z,18.20
2023-05-21T05:22:13.337Z,18.77
2023-05-21T05:24:41.183Z,19.19
2023-05-21T05:27:07.738Z,19.68
2023-05-21T05:29:34.249Z,19.34
2023-05-21T05:32:00.781Z,19.47
2023-05-21T05:34:27.259Z,19.65
2023-05-21T05:36:53.992Z,19.50
2023-05-21T05:39:20.699Z,19.57
2023-05-21T05:41:47.940Z,19.48
2023-05-21T05:44:15.465Z,19.78
2023-05-21T05:46:44.023Z,19.47
2023-05-21T05:49:10.952Z,19.98
2023-05-21T05:51:37.684Z,20.36
2023-05-21T05:54:04.251Z,20.26
2023-05-21T05:56:31.339Z,20.59
2023-05-21T05:58:58.651Z,20.24
2023-05-21T06:01:28.052Z,19.92
2023-05-21T06:03:54.771Z,19.69
2023-05-21T06:06:21.411Z,19.36
2023-05-21T06:08:48.063Z,19.87
2023-05-21T06:11:17.163Z,20.07
2023-05-21T06:13:44.036Z,20.85
2023-05-21T06:16:11.459Z,20.75
2023-05-21T06:18:38.217Z,20.72
2023-05-21T06:21:04.925Z,21.05
2023-05-21T06:23:32.763Z,21.47
2023-05-21T06:25:59.437Z,21.64
2023-05-21T06:28:26.654Z,22.28
2023-05-21T06:30:54.296Z,21.98
2023-05-21T06:33:21.559Z,21.23
2023-05-21T06:35:48.140Z,22.24
2023-05-21T06:38:14.821Z,22.34
2023-05-21T06:40:43.799Z,22.17
2023-05-21T06:43:14.392Z,22.20
2023-05-21T06:46:07.185Z,21.95
2023-05-21T06:48:39.125Z,22.33
2023-05-21T06:51:05.695Z,22.90
2023-05-21T06:53:32.901Z,23.29
2023-05-21T06:56:00.187Z,23.29
2023-05-21T06:58:38.731Z,22.20
2023-05-21T07:01:05.951Z,22.49
2023-05-21T07:03:32.747Z,22.56
2023-05-21T07:05:59.391Z,22.55
2023-05-21T07:08:25.968Z,22.98
2023-05-21T07:10:53.214Z,22.21
2023-05-21T07:13:19.738Z,22.06
2023-05-21T07:15:47.326Z,22.90
2023-05-21T07:18:14.226Z,21.95
2023-05-21T07:20:40.976Z,22.67
2023-05-21T07:23:10.903Z,21.97
2023-05-21T07:25:37.683Z,22.36
2023-05-21T07:28:06.524Z,22.80
2023-05-21T07:30:33.621Z,23.80
2023-05-21T07:33:01.646Z,23.72
2023-05-21T07:35:29.072Z,24.10
2023-05-21T07:37:56.711Z,23.93
2023-05-21T07:40:23.690Z,23.80
2023-05-21T07:42:50.820Z,23.42
2023-05-21T07:45:19.208Z,24.41
2023-05-21T07:47:46.856Z,25.05
2023-05-21T07:50:14.280Z,25.63
2023-05-21T07:52:41.320Z,26.06
2023-05-21T07:55:08.727Z,25.87
2023-05-21T07:57:36.855Z,25.45
2023-05-21T08:00:14.091Z,24.66
2023-05-21T08:02:47.969Z,24.68
2023-05-21T08:05:16.515Z,26.10
2023-05-21T08:07:43.947Z,25.59
2023-05-21T08:10:10.896Z,25.80
2023-05-21T08:12:37.457Z,24.70
2023-05-21T08:15:05.454Z,25.36
2023-05-21T08:17:34.673Z,24.52
2023-05-21T08:20:02.009Z,25.34
2023-05-21T08:22:30.051Z,26.04
2023-05-21T08:24:56.684Z,26.70
2023-05-21T08:27:23.217Z,26.69
2023-05-21T08:29:49.791Z,25.65
2023-05-21T08:32:16.568Z,25.35
2023-05-21T08:34:43.279Z,25.59
2023-05-21T08:37:29.798Z,25.94
2023-05-21T08:40:13.290Z,27.04
2023-05-21T08:42:48.630Z,25.47
2023-05-21T08:45:20.895Z,25.86
2023-05-21T08:47:48.166Z,24.93
2023-05-21T08:50:20.631Z,26.17
2023-05-21T08:52:47.788Z,26.44
2023-05-21T08:55:14.345Z,26.54
2023-05-21T08:57:44.308Z,26.49
2023-05-21T09:00:14.206Z,26.69
2023-05-21T09:02:41.193Z,27.38
2023-05-21T09:05:09.200Z,27.45
2023-05-21T09:07:55.776Z,27.21
2023-05-21T09:10:38.560Z,26.59
2023-05-21T09:13:05.532Z,26.85
2023-05-21T09:15:32.544Z,26.49
2023-05-21T09:17:59.705Z,26.28
2023-05-21T09:20:37.422Z,28.52
2023-05-21T09:23:05.187Z,29.23
2023-05-21T09:25:32.896Z,30.19
2023-05-21T09:28:11.476Z,29.71
2023-05-21T09:30:43.588Z,29.45
2023-05-21T09:33:10.260Z,29.07
2023-05-21T09:35:38.221Z,28.45
2023-05-21T09:38:08.566Z,26.84
2023-05-21T09:40:35.893Z,26.25
2023-05-21T09:43:02.558Z,27.16
2023-05-21T09:45:29.392Z,27.02
2023-05-21T09:47:58.283Z,28.17
2023-05-21T09:50:27.680Z,27.45
2023-05-21T09:52:55.595Z,28.95
2023-05-21T09:55:22.823Z,27.16
2023-05-21T09:57:50.949Z,27.90
2023-05-21T10:00:18.825Z,27.90
2023-05-21T10:02:47.414Z,27.74
2023-05-21T10:05:14.596Z,28.63
2023-05-21T10:07:42.128Z,29.16
2023-05-21T10:10:11.766Z,29.67
2023-05-21T10:12:39.886Z,27.79
2023-05-21T10:15:08.708Z,26.64
2023-05-21T10:17:35.436Z,28.04
2023-05-21T10:20:02.554Z,27.77
2023-05-21T10:22:29.255Z,27.12
2023-05-21T10:24:56.983Z,26.28
2023-05-21T10:27:23.646Z,26.54
2023-05-21T10:29:50.918Z,27.25
2023-05-21T10:32:17.841Z,27.31
2023-05-21T10:34:44.482Z,28.75
2023-05-21T10:37:12.685Z,28.57
2023-05-21T10:39:39.496Z,27.29
2023-05-21T10:42:16.334Z,27.02
2023-05-21T10:45:03.801Z,27.49
2023-05-21T10:47:40.506Z,27.65
2023-05-21T10:50:16.230Z,28.34
2023-05-21T10:52:58.193Z,28.20
2023-05-21T10:55:31.761Z,29.50
2023-05-21T10:58:09.878Z,29.19
2023-05-21T11:00:36.960Z,28.88
2023-05-21T11:03:04.285Z,28.71
2023-05-21T11:05:41.442Z,27.86
2023-05-21T11:08:23.585Z,27.74
2023-05-21T11:10:54.789Z,27.88
2023-05-21T11:13:21.840Z,27.48
2023-05-21T11:15:57.493Z,27.92
2023-05-21T11:18:37.717Z,28.55
2023-05-21T11:21:07.627Z,28.77
2023-05-21T11:23:53.021Z,28.46
2023-05-21T11:26:23.563Z,28.43
2023-05-21T11:29:05.376Z,27.74
2023-05-21T11:31:38.953Z,27.38
2023-05-21T11:34:12.863Z,28.03
2023-05-21T11:36:39.837Z,26.68
2023-05-21T11:39:13.311Z,27.31
2023-05-21T11:41:52.399Z,27.77
2023-05-21T11:44:21.560Z,27.59
2023-05-21T11:46:48.356Z,27.86
2023-05-21T11:49:15.869Z,28.05
2023-05-21T11:51:42.819Z,29.13
2023-05-21T11:54:10.260Z,29.65
2023-05-21T11:56:36.761Z,30.70
2023-05-21T11:59:03.326Z,28.98
2023-05-21T12:01:31.141Z,28.31
2023-05-21T12:03:57.816Z,28.84
2023-05-21T12:06:27.588Z,28.55
2023-05-21T12:08:58.509Z,28.08
2023-05-21T12:11:26.759Z,29.24
2023-05-21T12:13:53.386Z,29.38
2023-05-21T12:16:20.133Z,30.02
2023-05-21T12:18:46.734Z,30.69
2023-05-21T12:21:13.286Z,32.24
2023-05-21T12:23:40.302Z,30.42
2023-05-21T12:26:06.869Z,30.49
2023-05-21T12:28:33.413Z,30.55
2023-05-21T12:30:59.945Z,29.15
2023-05-21T12:33:33.620Z,29.28
2023-05-21T12:36:00.213Z,28.86
2023-05-21T12:38:30.681Z,29.82
2023-05-21T12:41:02.904Z,27.70
2023-05-21T12:43:32.870Z,27.09
2023-05-21T12:45:59.485Z,28.09
2023-05-21T12:48:26.016Z,28.91
2023-05-21T12:50:52.770Z,29.61
2023-05-21T12:53:19.376Z,28.19
2023-05-21T12:55:45.967Z,28.13
2023-05-21T12:58:13.686Z,28.12
2023-05-21T13:00:41.746Z,29.49
2023-05-21T13:03:08.451Z,29.71
2023-05-21T13:05:35.545Z,29.15
2023-05-21T13:08:02.337Z,28.54
2023-05-21T13:10:28.800Z,28.93
2023-05-21T13:12:55.315Z,29.53
2023-05-21T13:15:21.841Z,29.86
2023-05-21T13:17:50.473Z,30.82
2023-05-21T13:20:21.298Z,31.08
2023-05-21T13:22:49.487Z,29.52
2023-05-21T13:25:24.930Z,29.46
2023-05-21T13:27:52.579Z,28.26
2023-05-21T13:30:19.732Z,27.70
2023-05-21T13:32:46.693Z,27.82
2023-05-21T13:35:15.250Z,27.82
2023-05-21T13:37:42.181Z,28.79
2023-05-21T13:40:14.892Z,28.51
2023-05-21T13:42:42.184Z,27.03
2023-05-21T13:45:09.696Z,26.47
2023-05-21T13:47:39.160Z,26.19
2023-05-21T13:50:07.075Z,26.61
2023-05-21T13:52:33.663Z,26.29
2023-05-21T13:55:00.220Z,27.41
2023-05-21T13:57:27.137Z,26.91
2023-05-21T13:59:53.899Z,26.28
2023-05-21T14:02:20.487Z,26.93
2023-05-21T14:04:47.059Z,28.29
2023-05-21T14:07:13.541Z,28.79
2023-05-21T14:09:40.233Z,29.00
2023-05-21T14:12:07.542Z,28.17
2023-05-21T14:14:34.162Z,28.41
2023-05-21T14:17:00.777Z,28.36
2023-05-21T14:19:27.494Z,28.40
2023-05-21T14:21:54.248Z,28.29
2023-05-21T14:24:20.784Z,28.29
2023-05-21T14:26:47.290Z,28.11
2023-05-21T14:29:14.029Z,28.34
2023-05-21T14:31:40.707Z,28.23
2023-05-21T14:34:08.715Z,28.48
2023-05-21T14:36:36.305Z,28.89
2023-05-21T14:39:03.230Z,28.78
2023-05-21T14:41:30.114Z,28.65
2023-05-21T14:43:56.608Z,28.94
2023-05-21T14:46:23.175Z,28.50
2023-05-21T14:48:49.762Z,28.61
2023-05-21T14:51:16.547Z,28.81
2023-05-21T14:53:43.064Z,28.12
2023-05-21T14:56:09.612Z,28.92
2023-05-21T14:58:36.103Z,29.66
2023-05-21T15:01:04.253Z,27.95
2023-05-21T15:03:31.111Z,27.58
2023-05-21T15:05:58.582Z,27.18
2023-05-21T15:08:25.356Z,26.88
2023-05-21T15:10:52.057Z,26.95
2023-05-21T15:13:18.992Z,26.96
2023-05-21T15:15:45.565Z,27.04
2023-05-21T15:18:12.482Z,27.30
2023-05-21T15:20:38.966Z,27.34
2023-05-21T15:23:16.084Z,26.99
2023-05-21T15:25:43.089Z,26.07
2023-05-21T15:28:09.579Z,26.22
2023-05-21T15:30:36.129Z,25.78
2023-05-21T15:33:02.701Z,25.47
2023-05-21T15:35:29.323Z,25.39
2023-05-21T15:37:55.944Z,25.55
2023-05-21T15:40:23.416Z,24.61
2023-05-21T15:42:51.380Z,23.95
2023-05-21T15:45:17.946Z,23.96
2023-05-21T15:47:44.490Z,24.09
2023-05-21T15:50:11.049Z,24.19
2023-05-21T15:52:37.553Z,24.57
2023-05-21T15:55:04.195Z,24.39
2023-05-21T15:57:30.700Z,24.27
2023-05-21T15:59:57.239Z,24.13
2023-05-21T16:02:23.789Z,23.92
2023-05-21T16:04:51.915Z,23.98
2023-05-21T16:07:18.957Z,24.14
2023-05-21T16:09:45.657Z,24.06
2023-05-21T16:12:12.119Z,23.80
2023-05-21T16:14:38.637Z,23.64
2023-05-21T16:17:05.453Z,23.73
2023-05-21T16:19:32.248Z,23.45
2023-05-21T16:21:58.932Z,23.39
2023-05-21T16:24:25.629Z,23.05
2023-05-21T16:26:52.102Z,22.87
2023-05-21T16:29:18.597Z,23.03
2023-05-21T16:31:45.110Z,23.06
2023-05-21T16:34:11.675Z,23.11
2023-05-21T16:36:38.366Z,23.05
2023-05-21T16:39:04.981Z,23.10
2023-05-21T16:41:31.511Z,23.31
2023-05-21T16:43:58.013Z,23.90
2023-05-21T16:46:24.547Z,24.01
2023-05-21T16:48:51.162Z,23.75
2023-05-21T16:51:17.623Z,23.57
2023-05-21T16:53:44.177Z,23.31
2023-05-21T16:56:10.769Z,23.05
2023-05-21T16:58:37.246Z,23.01
2023-05-21T17:01:03.973Z,23.03
2023-05-21T17:03:32.378Z,22.96
2023-05-21T17:05:59.056Z,23.55
2023-05-21T17:08:25.707Z,23.26
2023-05-21T17:10:52.331Z,23.22
2023-05-21T17:13:22.713Z,23.49
2023-05-21T17:15:50.743Z,23.30
2023-05-21T17:18:17.357Z,23.11
2023-05-21T17:20:43.927Z,23.01
2023-05-21T17:23:11.779Z,23.03
2023-05-21T17:25:38.900Z,22.89
2023-05-21T17:28:05.758Z,23.10
2023-05-21T17:30:32.304Z,23.16
2023-05-21T17:32:58.926Z,23.09
2023-05-21T17:35:25.594Z,23.03
2023-05-21T17:37:53.530Z,22.89
2023-05-21T17:40:21.342Z,22.40
2023-05-21T17:42:48.157Z,22.28
2023-05-21T17:45:14.640Z,22.02
2023-05-21T17:47:41.209Z,22.32
2023-05-21T17:50:08.017Z,22.25
2023-05-21T17:52:34.530Z,21.88
2023-05-21T17:55:01.325Z,21.88
2023-05-21T17:57:27.836Z,21.84
2023-05-21T17:59:55.162Z,21.60
2023-05-21T18:02:23.384Z,21.57
2023-05-21T18:04:49.923Z,21.47
2023-05-21T18:07:16.582Z,21.16
2023-05-21T18:09:43.180Z,20.92
2023-05-21T18:12:09.761Z,20.97
2023-05-21T18:14:36.272Z,20.85
2023-05-21T18:17:02.875Z,20.72
2023-05-21T18:19:30.428Z,20.70
2023-05-21T18:21:57.148Z,20.50
2023-05-21T18:24:23.646Z,20.56
2023-05-21T18:26:50.254Z,20.54
2023-05-21T18:29:16.776Z,20.57
2023-05-21T18:31:43.626Z,20.53
2023-05-21T18:34:10.997Z,20.23
2023-05-21T18:36:40.674Z,20.20
2023-05-21T18:39:10.255Z,20.18
2023-05-21T18:41:37.371Z,20.10
2023-05-21T18:44:05.847Z,19.95
2023-05-21T18:46:32.467Z,19.80
2023-05-21T18:48:59.254Z,19.60
2023-05-21T18:51:25.742Z,19.55
2023-05-21T18:53:52.320Z,19.63
2023-05-21T18:56:18.914Z,19.65
2023-05-21T18:58:45.459Z,19.50
2023-05-21T19:01:12.026Z,19.46
2023-05-21T19:03:38.709Z,19.57
2023-05-21T19:06:05.368Z,19.43
2023-05-21T19:08:34.238Z,19.39
2023-05-21T19:11:00.922Z,19.21
2023-05-21T19:13:27.657Z,19.23
2023-05-21T19:15:54.324Z,19.16
2023-05-21T19:18:20.994Z,18.93
2023-05-21T19:20:47.641Z,18.79
2023-05-21T19:23:14.325Z,18.86
2023-05-21T19:25:41.528Z,18.92
2023-05-21T19:28:08.061Z,18.89
2023-05-21T19:30:36.408Z,18.68
2023-05-21T19:33:03.275Z,18.76
2023-05-21T19:35:30.140Z,18.74
2023-05-21T19:38:00.208Z,18.54
2023-05-21T19:40:27.788Z,18.60
2023-05-21T19:42:54.293Z,18.70
2023-05-21T19:45:21.587Z,18.23
2023-05-21T19:47:48.309Z,18.13
2023-05-21T19:50:14.940Z,18.06
2023-05-21T19:52:41.482Z,17.98
2023-05-21T19:55:09.963Z,17.97
2023-05-21T19:57:37.075Z,18.05
2023-05-21T20:00:04.505Z,18.17
2023-05-21T20:02:39.016Z,17.95
2023-05-21T20:05:05.758Z,18.01
2023-05-21T20:07:32.218Z,17.92
2023-05-21T20:09:58.709Z,17.93
2023-05-21T20:12:25.411Z,17.91
2023-05-21T20:14:53.590Z,17.85
2023-05-21T20:17:20.661Z,17.81
2023-05-21T20:19:48.076Z,17.54
2023-05-21T20:22:18.008Z,17.58
2023-05-21T20:24:44.566Z,17.61
2023-05-21T20:27:11.128Z,17.56
2023-05-21T20:29:37.702Z,17.53
2023-05-21T20:32:04.356Z,17.23
2023-05-21T20:34:31.884Z,17.16
2023-05-21T20:36:58.580Z,17.27
2023-05-21T20:39:27.714Z,17.46
2023-05-21T20:41:55.096Z,17.51
2023-05-21T20:44:22.185Z,17.57
2023-05-21T20:46:49.085Z,17.45
2023-05-21T20:49:17.523Z,17.37
2023-05-21T20:51:44.351Z,17.22
2023-05-21T20:54:11.127Z,17.11
2023-05-21T20:56:42.503Z,16.89
2023-05-21T20:59:11.157Z,16.99
2023-05-21T21:01:38.440Z,16.87
2023-05-21T21:04:05.215Z,16.80
2023-05-21T21:06:32.010Z,16.89
2023-05-21T21:08:58.785Z,16.97
2023-05-21T21:11:26.626Z,16.89
2023-05-21T21:13:53.166Z,16.91
2023-05-21T21:16:19.768Z,16.76
2023-05-21T21:18:47.016Z,16.68
2023-05-21T21:21:13.866Z,16.46
2023-05-21T21:23:40.497Z,16.34
2023-05-21T21:26:07.236Z,16.31
2023-05-21T21:28:34.054Z,16.44
2023-05-21T21:31:00.813Z,16.41
2023-05-21T21:33:28.472Z,16.38
2023-05-21T21:35:55.212Z,16.27
2023-05-21T21:38:21.772Z,16.11
2023-05-21T21:40:48.397Z,16.33
2023-05-21T21:43:14.955Z,16.40
2023-05-21T21:45:41.554Z,16.39
2023-05-21T21:48:08.274Z,16.41
2023-05-21T21:50:34.826Z,16.20
2023-05-21T21:53:03.483Z,16.04
2023-05-21T21:55:30.196Z,16.12
2023-05-21T21:57:56.769Z,16.25
2023-05-21T22:00:26.556Z,16.21
2023-05-21T22:02:53.703Z,16.13
2023-05-21T22:05:20.270Z,16.14
2023-05-21T22:07:47.029Z,16.16
2023-05-21T22:10:15.137Z,16.28
2023-05-21T22:12:42.096Z,16.44
2023-05-21T22:15:08.954Z,16.41
2023-05-21T22:17:35.467Z,16.45
2023-05-21T22:20:02.115Z,16.44
2023-05-21T22:22:28.635Z,16.40
2023-05-21T22:24:55.293Z,16.46
2023-05-21T22:27:24.875Z,16.31
2023-05-21T22:29:51.428Z,16.16
2023-05-21T22:32:18.044Z,16.24
2023-05-21T22:34:44.521Z,16.39
2023-05-21T22:37:11.089Z,16.47
2023-05-21T22:39:37.762Z,16.76
2023-05-21T22:42:04.446Z,16.71
2023-05-21T22:44:31.933Z,16.43
2023-05-21T22:47:01.048Z,16.44
2023-05-21T22:49:27.723Z,16.37
2023-05-21T22:51:54.365Z,16.07
2023-05-21T22:54:21.200Z,16.07
2023-05-21T22:56:49.270Z,15.91
2023-05-21T22:59:15.858Z,15.79
2023-05-21T23:01:42.495Z,15.73
2023-05-21T23:04:09.048Z,15.73
2023-05-21T23:06:35.606Z,15.92
2023-05-21T23:09:02.130Z,15.97
2023-05-21T23:11:28.676Z,15.89
2023-05-21T23:13:55.202Z,15.86
2023-05-21T23:16:22.682Z,15.95
2023-05-21T23:18:49.996Z,15.83
2023-05-21T23:21:16.798Z,15.88
2023-05-21T23:23:43.463Z,15.83
2023-05-21T23:26:10.046Z,15.69
2023-05-21T23:28:37.190Z,15.53
2023-05-21T23:31:03.745Z,15.64
2023-05-21T23:33:30.256Z,15.75
2023-05-21T23:35:56.768Z,15.64
2023-05-21T23:38:23.705Z,15.60
2023-05-21T23:40:50.149Z,15.73
2023-05-21T23:43:16.824Z,15.78
2023-05-21T23:45:43.474Z,15.78
2023-05-21T23:48:10.047Z,15.75
2023-05-21T23:50:36.697Z,15.74
2023-05-21T23:53:03.334Z,15.63
2023-05-21T23:55:29.996Z,15.66
2023-05-21T23:57:56.498Z,15.66
